createdAt,value
2022-09-15T00:01:42.290Z,14.24
2022-09-15T00:04:10.874Z,14.16
2022-09-15T00:06:39.135Z,14.09
2022-09-15T00:09:07.642Z,13.97
2022-09-15T00:11:38.708Z,14.06
2022-09-15T00:14:08.922Z,14.03
2022-09-15T00:16:37.529Z,14.15
2022-09-15T00:19:07.700Z,14.04
2022-09-15T00:21:39.510Z,14.10
2022-09-15T00:24:11.259Z,14.04
2022-09-15T00:26:40.669Z,14.13
2022-09-15T00:29:12.302Z,14.10
2022-09-15T00:31:41.072Z,14.25
2022-09-15T00:34:14.639Z,14.34
2022-09-15T00:36:42.904Z,14.29
2022-09-15T00:39:12.420Z,14.36
2022-09-15T00:41:41.424Z,14.29
2022-09-15T00:45:01.001Z,14.34
2022-09-15T00:47:36.768Z,14.43
2022-09-15T00:50:10.786Z,14.51
2022-09-15T00:52:45.273Z,14.47
2022-09-15T00:55:19.959Z,14.39
2022-09-15T00:57:55.076Z,14.24
2022-09-15T01:00:27.433Z,14.28
2022-09-15T01:02:57.491Z,14.16
2022-09-15T01:05:35.596Z,14.18
2022-09-15T01:08:09.558Z,14.22
2022-09-15T01:10:41.089Z,14.30
2022-09-15T01:13:12.911Z,14.16
2022-09-15T01:15:54.645Z,14.19
2022-09-15T01:18:29.503Z,14.15
2022-09-15T01:21:29.568Z,14.18
2022-09-15T01:24:38.010Z,14.00
2022-09-15T01:27:42.914Z,13.91
2022-09-15T01:30:15.344Z,14.03
2022-09-15T01:33:13.321Z,13.99
2022-09-15T01:35:55.103Z,13.93
2022-09-15T01:38:33.985Z,13.77
2022-09-15T01:41:09.242Z,13.79
2022-09-15T01:43:44.569Z,13.92
2022-09-15T01:46:18.971Z,14.02
2022-09-15T01:48:50.513Z,14.15
2022-09-15T01:51:19.578Z,14.06
2022-09-15T01:53:50.928Z,13.99
2022-09-15T01:56:19.655Z,13.71
2022-09-15T01:58:52.203Z,13.73
2022-09-15T02:01:29.721Z,13.74
2022-09-15T02:04:04.291Z,13.70
2022-09-15T02:06:41.113Z,13.86
2022-09-15T02:09:15.779Z,13.80
2022-09-15T02:11:55.174Z,13.94
2022-09-15T02:14:43.635Z,13.79
2022-09-15T02:17:18.739Z,13.86
2022-09-15T02:19:52.250Z,14.06
2022-09-15T02:22:27.731Z,13.98
2022-09-15T02:25:02.926Z,13.85
2022-09-15T02:27:37.680Z,13.72
2022-09-15T02:30:12.687Z,13.89
2022-09-15T02:32:49.066Z,13.91
2022-09-15T02:35:18.441Z,13.77
2022-09-15T02:37:47.584Z,13.69
2022-09-15T02:40:15.978Z,13.75
2022-09-15T02:42:55.827Z,13.68
2022-09-15T02:45:25.194Z,13.76
2022-09-15T02:47:54.809Z,13.51
2022-09-15T02:50:23.047Z,13.49
2022-09-15T02:52:51.265Z,13.45
2022-09-15T02:55:19.596Z,13.38
2022-09-15T02:57:47.778Z,13.39
2022-09-15T03:00:20.112Z,13.25
2022-09-15T03:02:51.649Z,13.27
2022-09-15T03:05:24.736Z,13.14
2022-09-15T03:07:53.955Z,13.18
2022-09-15T03:10:24.053Z,13.05
2022-09-15T03:12:54.776Z,12.98
2022-09-15T03:15:25.436Z,13.04
2022-09-15T03:17:54.891Z,12.97
2022-09-15T03:20:28.106Z,12.99
2022-09-15T03:22:56.707Z,13.23
2022-09-15T03:25:26.833Z,13.06
2022-09-15T03:27:56.609Z,12.95
2022-09-15T03:30:24.907Z,12.85
2022-09-15T03:32:53.511Z,12.82
2022-09-15T03:35:21.731Z,12.81
2022-09-15T03:37:51.179Z,12.93
2022-09-15T03:40:19.401Z,12.76
2022-09-15T03:42:47.583Z,12.94
2022-09-15T03:45:16.003Z,13.07
2022-09-15T03:47:44.139Z,12.76
2022-09-15T03:50:12.272Z,12.72
2022-09-15T03:52:40.433Z,12.77
2022-09-15T03:55:11.027Z,12.76
2022-09-15T03:57:39.178Z,12.89
2022-09-15T04:00:09.674Z,12.75
2022-09-15T04:02:37.795Z,12.64
2022-09-15T04:05:07.354Z,12.83
2022-09-15T04:07:35.583Z,12.73
2022-09-15T04:10:04.615Z,12.75
2022-09-15T04:12:34.467Z,12.70
2022-09-15T04:15:03.905Z,12.62
2022-09-15T04:17:32.141Z,12.63
2022-09-15T04:20:00.340Z,12.59
2022-09-15T04:22:32.151Z,12.58
2022-09-15T04:25:00.358Z,12.72
2022-09-15T04:27:28.911Z,12.76
2022-09-15T04:29:58.669Z,12.58
2022-09-15T04:32:29.577Z,12.67
2022-09-15T04:34:57.739Z,12.75
2022-09-15T04:37:26.883Z,12.92
2022-09-15T04:39:55.137Z,12.77
2022-09-15T04:42:23.901Z,12.72
2022-09-15T04:44:52.135Z,12.73
2022-09-15T04:47:21.671Z,12.87
2022-09-15T04:49:49.796Z,12.74
2022-09-15T04:52:18.157Z,12.77
2022-09-15T04:54:46.323Z,12.76
2022-09-15T04:57:14.559Z,12.82
2022-09-15T04:59:42.783Z,12.77
2022-09-15T05:02:11.247Z,13.01
2022-09-15T05:04:40.905Z,12.71
2022-09-15T05:07:09.072Z,12.66
2022-09-15T05:09:37.279Z,12.74
2022-09-15T05:12:06.113Z,13.00
2022-09-15T05:14:34.357Z,12.79
2022-09-15T05:17:02.697Z,12.90
2022-09-15T05:19:30.899Z,12.98
2022-09-15T05:22:00.535Z,12.80
2022-09-15T05:24:28.655Z,12.89
2022-09-15T05:26:56.824Z,12.90
2022-09-15T05:29:25.163Z,12.92
2022-09-15T05:31:54.646Z,12.82
2022-09-15T05:34:22.904Z,12.91
2022-09-15T05:36:51.145Z,13.08
2022-09-15T05:39:20.731Z,12.96
2022-09-15T05:41:48.956Z,13.19
2022-09-15T05:44:18.219Z,13.17
2022-09-15T05:46:46.385Z,13.18
2022-09-15T05:49:15.068Z,13.18
2022-09-15T05:51:44.545Z,13.20
2022-09-15T05:54:12.719Z,13.12
2022-09-15T05:56:42.537Z,13.09
2022-09-15T05:59:10.717Z,13.22
2022-09-15T06:01:39.108Z,13.17
2022-09-15T06:04:07.324Z,13.22
2022-09-15T06:06:35.497Z,13.22
2022-09-15T06:09:07.226Z,13.32
2022-09-15T06:11:35.436Z,13.21
2022-09-15T06:14:06.000Z,13.28
2022-09-15T06:16:36.050Z,13.52
2022-09-15T06:19:04.531Z,13.34
2022-09-15T06:21:33.996Z,13.35
2022-09-15T06:24:04.480Z,13.57
2022-09-15T06:26:32.882Z,13.53
2022-09-15T06:29:03.202Z,13.47
2022-09-15T06:31:35.663Z,13.74
2022-09-15T06:34:05.422Z,13.63
2022-09-15T06:36:34.342Z,13.65
2022-09-15T06:39:02.844Z,13.78
2022-09-15T06:41:52.502Z,14.03
2022-09-15T06:44:20.093Z,13.87
2022-09-15T06:46:50.260Z,13.91
2022-09-15T06:49:19.080Z,14.07
2022-09-15T06:51:47.399Z,13.96
2022-09-15T06:54:16.677Z,14.11
2022-09-15T06:56:45.604Z,13.95
2022-09-15T06:59:14.721Z,14.06
2022-09-15T07:01:44.186Z,14.18
2022-09-15T07:04:14.108Z,14.04
2022-09-15T07:06:42.479Z,14.05
2022-09-15T07:09:13.100Z,14.25
2022-09-15T07:11:42.073Z,14.44
2022-09-15T07:14:10.386Z,14.57
2022-09-15T07:16:38.782Z,14.66
2022-09-15T07:19:07.312Z,14.77
2022-09-15T07:21:37.299Z,14.65
2022-09-15T07:24:07.594Z,14.66
2022-09-15T07:26:36.369Z,14.63
2022-09-15T07:29:07.362Z,14.51
2022-09-15T07:31:38.956Z,14.46
2022-09-15T07:34:08.638Z,14.59
2022-09-15T07:36:38.281Z,14.43
2022-09-15T07:39:07.145Z,14.34
2022-09-15T07:41:35.416Z,14.24
2022-09-15T07:44:04.645Z,14.38
2022-09-15T07:46:34.409Z,14.23
2022-09-15T07:49:03.827Z,14.15
2022-09-15T07:51:32.193Z,14.46
2022-09-15T07:54:02.512Z,14.39
2022-09-15T07:56:30.757Z,14.65
2022-09-15T07:58:59.627Z,15.00
2022-09-15T08:01:28.092Z,14.86
2022-09-15T08:03:56.347Z,14.66
2022-09-15T08:06:27.471Z,14.68
2022-09-15T08:09:00.384Z,14.85
2022-09-15T08:11:31.792Z,15.08
2022-09-15T08:14:03.338Z,15.12
2022-09-15T08:16:31.697Z,14.86
2022-09-15T08:18:59.948Z,15.14
2022-09-15T08:21:29.197Z,15.53
2022-09-15T08:23:59.831Z,15.24
2022-09-15T08:26:30.915Z,15.13
2022-09-15T08:29:00.572Z,15.17
2022-09-15T08:31:29.322Z,15.33
2022-09-15T08:33:58.282Z,15.19
2022-09-15T08:36:27.734Z,15.08
2022-09-15T08:38:57.050Z,15.11
2022-09-15T08:41:32.281Z,14.85
2022-09-15T08:44:09.683Z,15.10
2022-09-15T08:46:47.922Z,15.32
2022-09-15T08:49:47.413Z,15.11
2022-09-15T08:52:20.855Z,15.30
2022-09-15T08:54:52.355Z,15.14
2022-09-15T08:57:25.807Z,15.03
2022-09-15T08:59:55.672Z,15.15
2022-09-15T09:02:56.147Z,15.20
2022-09-15T09:05:48.523Z,15.22
2022-09-15T09:08:39.100Z,15.33
2022-09-15T09:11:19.879Z,15.49
2022-09-15T09:14:07.672Z,15.64
2022-09-15T09:16:53.818Z,15.67
2022-09-15T09:19:50.553Z,15.60
2022-09-15T09:22:24.969Z,15.56
2022-09-15T09:24:56.666Z,15.73
2022-09-15T09:27:29.799Z,15.69
2022-09-15T09:30:03.840Z,15.67
2022-09-15T09:32:43.715Z,15.96
2022-09-15T09:35:21.557Z,16.09
2022-09-15T09:37:51.282Z,16.16
2022-09-15T09:40:20.580Z,16.00
2022-09-15T09:42:49.112Z,16.29
2022-09-15T09:45:20.238Z,16.28
2022-09-15T09:47:48.470Z,16.07
2022-09-15T09:50:35.717Z,16.37
2022-09-15T09:53:27.297Z,16.39
2022-09-15T09:56:15.387Z,16.14
2022-09-15T09:58:44.718Z,16.29
2022-09-15T10:01:16.947Z,16.45
2022-09-15T10:03:46.445Z,16.15
2022-09-15T10:06:19.514Z,16.42
2022-09-15T10:08:57.880Z,16.18
2022-09-15T10:11:43.124Z,16.35
2022-09-15T10:14:23.849Z,16.39
2022-09-15T10:17:02.309Z,16.51
2022-09-15T10:19:32.101Z,16.54
2022-09-15T10:22:02.353Z,16.48
2022-09-15T10:24:36.932Z,16.49
2022-09-15T10:27:21.077Z,16.68
2022-09-15T10:29:49.557Z,16.86
2022-09-15T10:32:30.173Z,17.21
2022-09-15T10:35:04.828Z,16.99
2022-09-15T10:37:51.001Z,16.98
2022-09-15T10:40:45.742Z,17.29
2022-09-15T10:43:33.774Z,17.14
2022-09-15T10:46:20.860Z,17.23
2022-09-15T10:49:11.895Z,17.13
2022-09-15T10:51:55.103Z,17.49
2022-09-15T10:54:41.203Z,17.82
2022-09-15T11:00:05.728Z,17.55
2022-09-15T11:02:59.037Z,17.85
2022-09-15T11:05:52.050Z,17.76
2022-09-15T11:08:52.283Z,17.42
2022-09-15T11:11:34.397Z,17.83
2022-09-15T11:14:20.255Z,17.96
2022-09-15T11:17:07.937Z,17.77
2022-09-15T11:20:04.222Z,17.79
2022-09-15T11:22:39.680Z,17.96
2022-09-15T11:25:17.945Z,17.75
2022-09-15T11:27:53.920Z,17.85
2022-09-15T11:30:24.816Z,18.34
2022-09-15T11:33:01.389Z,17.78
2022-09-15T11:35:46.164Z,18.10
2022-09-15T11:38:32.375Z,18.61
2022-09-15T11:41:17.677Z,18.46
2022-09-15T11:44:02.271Z,18.28
2022-09-15T11:46:45.545Z,17.85
2022-09-15T11:49:19.920Z,17.79
2022-09-15T11:52:00.520Z,18.07
2022-09-15T11:54:39.151Z,18.37
2022-09-15T11:57:16.002Z,18.06
2022-09-15T11:59:54.759Z,18.07
2022-09-15T12:02:31.895Z,18.18
2022-09-15T12:05:15.028Z,18.48
2022-09-15T12:07:51.259Z,18.09
2022-09-15T12:10:27.483Z,17.70
2022-09-15T12:12:56.679Z,17.71
2022-09-15T12:15:27.690Z,17.84
2022-09-15T12:18:37.437Z,17.73
2022-09-15T12:21:15.240Z,17.59
2022-09-15T12:23:51.751Z,17.66
2022-09-15T12:26:24.356Z,17.68
2022-09-15T12:28:57.265Z,17.72
2022-09-15T12:31:37.089Z,17.89
2022-09-15T12:34:24.419Z,17.88
2022-09-15T12:36:54.684Z,18.01
2022-09-15T12:39:30.032Z,18.35
2022-09-15T12:42:18.666Z,18.32
2022-09-15T12:44:53.637Z,18.02
2022-09-15T12:47:36.705Z,18.03
2022-09-15T12:50:22.879Z,18.10
2022-09-15T12:52:54.561Z,18.33
2022-09-15T12:55:26.722Z,18.60
2022-09-15T12:58:00.151Z,18.09
2022-09-15T13:00:33.551Z,17.80
2022-09-15T13:03:04.498Z,17.99
2022-09-15T13:06:21.268Z,17.74
2022-09-15T13:09:13.074Z,17.85
2022-09-15T13:14:30.065Z,17.40
2022-09-15T13:17:05.981Z,17.62
2022-09-15T13:19:43.595Z,18.14
2022-09-15T13:22:27.263Z,18.58
2022-09-15T13:25:01.788Z,18.65
2022-09-15T13:27:37.035Z,18.43
2022-09-15T13:30:24.139Z,18.31
2022-09-15T13:33:02.368Z,17.65
2022-09-15T13:36:01.715Z,17.80
2022-09-15T13:39:00.458Z,17.45
2022-09-15T13:42:03.634Z,17.25
2022-09-15T13:45:32.672Z,17.17
2022-09-15T13:48:31.064Z,17.02
2022-09-15T13:51:02.588Z,16.87
2022-09-15T13:53:52.257Z,16.60
2022-09-15T13:56:27.840Z,16.73
2022-09-15T13:59:09.678Z,16.63
2022-09-15T14:01:39.887Z,15.67
2022-09-15T14:04:16.563Z,15.75
2022-09-15T14:06:47.896Z,15.73
2022-09-15T14:09:19.728Z,15.77
2022-09-15T14:11:51.261Z,15.62
2022-09-15T14:14:36.892Z,15.72
2022-09-15T14:17:05.462Z,15.70
2022-09-15T14:19:38.322Z,15.78
2022-09-15T14:22:27.114Z,15.39
2022-09-15T14:24:59.872Z,15.59
2022-09-15T14:27:31.368Z,15.72
2022-09-15T14:30:04.633Z,15.72
2022-09-15T14:32:38.913Z,15.73
2022-09-15T14:35:19.681Z,15.62
2022-09-15T14:37:50.815Z,15.51
2022-09-15T14:40:24.608Z,15.52
2022-09-15T14:42:52.850Z,15.62
2022-09-15T14:48:18.493Z,15.86
2022-09-15T14:50:59.565Z,15.78
2022-09-15T14:53:30.065Z,15.65
2022-09-15T14:56:08.205Z,15.66
2022-09-15T14:58:41.651Z,15.70
2022-09-15T15:01:17.679Z,15.80
2022-09-15T15:03:53.717Z,15.80
2022-09-15T15:06:32.631Z,15.77
2022-09-15T15:09:08.256Z,15.76
2022-09-15T15:11:41.740Z,15.89
2022-09-15T15:14:12.792Z,15.70
2022-09-15T15:16:53.235Z,15.64
2022-09-15T15:19:40.516Z,15.75
2022-09-15T15:22:20.979Z,16.01
2022-09-15T15:24:52.433Z,16.05
2022-09-15T15:27:41.552Z,16.15
2022-09-15T15:30:48.401Z,15.80
2022-09-15T15:33:24.043Z,15.96
2022-09-15T15:36:11.752Z,15.91
2022-09-15T15:38:47.645Z,15.89
2022-09-15T15:41:22.559Z,15.72
2022-09-15T15:44:00.751Z,15.65
2022-09-15T15:46:50.428Z,15.97
2022-09-15T15:49:20.976Z,16.20
2022-09-15T15:51:50.144Z,16.17
2022-09-15T15:54:22.620Z,16.20
2022-09-15T15:56:50.730Z,16.20
2022-09-15T15:59:20.197Z,16.16
2022-09-15T16:01:53.715Z,16.13
2022-09-15T16:04:22.436Z,16.10
2022-09-15T16:06:51.760Z,16.22
2022-09-15T16:09:21.822Z,15.75
2022-09-15T16:11:50.718Z,15.69
2022-09-15T16:14:18.921Z,16.00
2022-09-15T16:16:47.153Z,15.94
2022-09-15T16:19:15.395Z,16.15
2022-09-15T16:21:44.271Z,16.14
2022-09-15T16:24:16.327Z,16.13
2022-09-15T16:26:50.636Z,16.10
2022-09-15T16:29:30.033Z,16.08
2022-09-15T16:31:58.826Z,16.13
2022-09-15T16:34:27.225Z,16.04
2022-09-15T16:36:55.445Z,16.11
2022-09-15T16:39:23.882Z,16.15
2022-09-15T16:41:53.464Z,16.14
2022-09-15T16:44:21.905Z,16.17
2022-09-15T16:46:50.331Z,16.18
2022-09-15T16:49:21.012Z,16.17
2022-09-15T16:51:49.317Z,16.02
2022-09-15T16:54:20.213Z,16.14
2022-09-15T16:56:48.436Z,16.11
2022-09-15T16:59:17.968Z,15.82
2022-09-15T17:01:46.450Z,15.88
2022-09-15T17:04:19.013Z,15.92
2022-09-15T17:06:47.405Z,15.99
2022-09-15T17:09:15.789Z,15.88
2022-09-15T17:11:44.725Z,15.87
2022-09-15T17:14:18.505Z,15.79
2022-09-15T17:16:52.584Z,15.90
2022-09-15T17:19:21.159Z,15.93
2022-09-15T17:21:52.597Z,15.83
2022-09-15T17:24:21.666Z,15.97
2022-09-15T17:26:49.991Z,15.96
2022-09-15T17:29:20.736Z,15.70
2022-09-15T17:31:48.899Z,15.64
2022-09-15T17:34:19.886Z,15.62
2022-09-15T17:36:51.468Z,15.83
2022-09-15T17:39:21.068Z,15.63
2022-09-15T17:41:49.338Z,15.61
2022-09-15T17:44:19.050Z,15.66
2022-09-15T17:46:47.244Z,15.68
2022-09-15T17:49:15.822Z,15.65
2022-09-15T17:51:43.969Z,15.63
2022-09-15T17:54:12.434Z,15.71
2022-09-15T17:56:40.865Z,15.61
2022-09-15T17:59:13.081Z,15.58
2022-09-15T18:01:45.865Z,15.44
2022-09-15T18:04:14.056Z,15.19
2022-09-15T18:06:45.541Z,15.13
2022-09-15T18:09:14.986Z,15.01
2022-09-15T18:11:43.247Z,14.92
2022-09-15T18:14:12.197Z,14.83
2022-09-15T18:16:41.424Z,14.76
2022-09-15T18:19:10.934Z,14.66
2022-09-15T18:21:39.197Z,14.67
2022-09-15T18:24:07.899Z,14.67
2022-09-15T18:26:36.119Z,14.67
2022-09-15T18:29:04.427Z,14.70
2022-09-15T18:31:33.243Z,14.68
2022-09-15T18:34:02.752Z,14.64
2022-09-15T18:36:32.291Z,14.63
2022-09-15T18:39:00.842Z,14.59
2022-09-15T18:41:29.049Z,14.60
2022-09-15T18:43:57.525Z,14.63
2022-09-15T18:46:25.958Z,14.50
2022-09-15T18:48:54.539Z,14.49
2022-09-15T18:51:29.136Z,14.52
2022-09-15T18:54:04.955Z,14.42
2022-09-15T18:56:33.285Z,14.46
2022-09-15T18:59:01.587Z,14.48
2022-09-15T19:01:30.322Z,14.45
2022-09-15T19:03:58.739Z,14.48
2022-09-15T19:06:27.134Z,14.53
2022-09-15T19:08:55.565Z,14.50
2022-09-15T19:11:25.181Z,14.53
2022-09-15T19:13:54.384Z,14.57
2022-09-15T19:16:34.504Z,14.73
2022-09-15T19:19:11.701Z,14.61
2022-09-15T19:21:39.888Z,14.45
2022-09-15T19:24:08.289Z,14.36
2022-09-15T19:26:38.048Z,14.34
2022-09-15T19:29:07.629Z,14.35
2022-09-15T19:31:41.809Z,14.31
2022-09-15T19:34:10.682Z,14.47
2022-09-15T19:36:39.262Z,14.31
2022-09-15T19:39:07.694Z,14.12
2022-09-15T19:41:37.658Z,14.31
2022-09-15T19:44:08.431Z,14.17
2022-09-15T19:46:37.891Z,14.16
2022-09-15T19:49:06.554Z,13.96
2022-09-15T19:51:35.773Z,14.01
2022-09-15T19:54:05.206Z,14.06
2022-09-15T19:56:37.310Z,14.15
2022-09-15T19:59:07.224Z,14.11
2022-09-15T20:01:37.795Z,14.27
2022-09-15T20:04:06.539Z,14.20
2022-09-15T20:06:34.765Z,14.19
2022-09-15T20:09:03.044Z,14.30
2022-09-15T20:11:32.757Z,14.20
2022-09-15T20:14:02.826Z,14.24
2022-09-15T20:16:32.031Z,14.33
2022-09-15T20:19:00.785Z,14.34
2022-09-15T20:21:49.371Z,14.36
2022-09-15T20:24:19.740Z,14.32
2022-09-15T20:26:48.693Z,14.33
2022-09-15T20:29:18.470Z,14.47
2022-09-15T20:31:46.874Z,14.38
2022-09-15T20:34:15.419Z,14.60
2022-09-15T20:36:45.460Z,14.48
2022-09-15T20:39:15.842Z,14.44
2022-09-15T20:41:45.630Z,14.48
2022-09-15T20:44:14.527Z,14.55
2022-09-15T20:46:44.267Z,14.43
2022-09-15T20:49:13.262Z,14.45
2022-09-15T20:51:43.911Z,14.48
2022-09-15T20:54:12.278Z,14.62
2022-09-15T20:56:40.655Z,14.37
2022-09-15T20:59:14.915Z,14.28
2022-09-15T21:01:44.952Z,14.28
2022-09-15T21:04:13.568Z,14.23
2022-09-15T21:06:42.268Z,14.32
2022-09-15T21:09:10.626Z,14.39
2022-09-15T21:11:39.746Z,14.23
2022-09-15T21:14:08.229Z,14.21
2022-09-15T21:16:36.795Z,14.22
2022-09-15T21:19:07.950Z,14.48
2022-09-15T21:21:36.762Z,14.39
2022-09-15T21:24:08.523Z,14.32
2022-09-15T21:27:00.879Z,14.45
2022-09-15T21:29:29.932Z,14.33
2022-09-15T21:31:58.883Z,14.35
2022-09-15T21:34:31.606Z,14.39
2022-09-15T21:37:00.966Z,14.43
2022-09-15T21:39:29.613Z,14.31
2022-09-15T21:41:59.239Z,14.22
2022-09-15T21:44:28.147Z,14.20
2022-09-15T21:46:56.543Z,14.08
2022-09-15T21:49:25.328Z,14.10
2022-09-15T21:51:54.931Z,13.98
2022-09-15T21:54:23.915Z,14.02
2022-09-15T21:56:52.356Z,14.11
2022-09-15T21:59:20.487Z,14.02
2022-09-15T22:01:49.151Z,14.16
2022-09-15T22:04:17.549Z,14.12
2022-09-15T22:06:46.781Z,14.00
2022-09-15T22:09:21.130Z,13.95
2022-09-15T22:11:49.467Z,13.93
2022-09-15T22:14:17.780Z,14.09
2022-09-15T22:16:46.104Z,14.17
2022-09-15T22:19:15.166Z,14.01
2022-09-15T22:21:43.290Z,14.03
2022-09-15T22:24:14.049Z,14.00
2022-09-15T22:26:44.163Z,13.88
2022-09-15T22:29:12.654Z,13.80
2022-09-15T22:31:41.944Z,13.99
2022-09-15T22:34:10.872Z,14.04
2022-09-15T22:36:39.175Z,13.95
2022-09-15T22:39:07.796Z,13.84
2022-09-15T22:41:38.578Z,13.75
2022-09-15T22:44:18.574Z,13.85
2022-09-15T22:46:46.859Z,14.03
2022-09-15T22:49:15.096Z,13.87
2022-09-15T22:51:43.288Z,13.92
2022-09-15T22:54:11.585Z,14.11
2022-09-15T22:56:41.995Z,14.22
2022-09-15T22:59:12.064Z,14.11
2022-09-15T23:01:40.756Z,14.10
2022-09-15T23:04:09.449Z,14.02
2022-09-15T23:06:39.743Z,14.12
2022-09-15T23:09:10.456Z,14.02
2022-09-15T23:11:42.800Z,13.95
2022-09-15T23:14:15.899Z,13.96
2022-09-15T23:16:44.804Z,13.86
2022-09-15T23:19:16.688Z,14.06
2022-09-15T23:21:44.925Z,14.12
2022-09-15T23:24:13.882Z,13.98
2022-09-15T23:26:42.031Z,13.72
2022-09-15T23:29:10.225Z,13.82
2022-09-15T23:31:40.086Z,13.50
2022-09-15T23:34:08.338Z,13.59
2022-09-15T23:36:38.738Z,13.61
2022-09-15T23:39:06.884Z,13.65
2022-09-15T23:41:36.670Z,13.61
2022-09-15T23:44:05.329Z,13.56
2022-09-15T23:46:34.592Z,13.49
2022-09-15T23:49:04.149Z,13.38
2022-09-15T23:51:33.526Z,13.31
2022-09-15T23:54:03.246Z,13.22
2022-09-15T23:56:33.466Z,13.21
2022-09-15T23:59:02.269Z,13.24
